Aérodrome :
LOGIN :

S'inscrire | Disclaimer

   EN    FR    IT 

 










Légende :    VFR   VFR Marginal   IFR   IFR Intensif   IFR Très Intensif
Visi : 
Plafond : 
>= 8 km
>= 3000ft
5 à 8 km
1000 à 3000 ft
1500m à 5 km
500 à 1000 ft
800 à 1500m
200 à 500 ft
< 800m
< 200 ft
Symboles :   Orages  Brouillard  Fortes neiges  Fortes précipitations  Vent > 20 kt
SIGMETs :   Divers  Orages  Givrage  Turbulence  Onde Orograph.  Cendres Volcan.






- Altitude de l'aérodrome : 352 ft
- Code IATA : ARW


LRAR - Arad International

DERNIER METAR :
  • 270930Z 15006KT 9999 FEW015 BKN024 18/15 Q1001

METARs EXPIRÉS :
  • 270900Z 16008KT 130V190 9999 FEW017 BKN027 18/15 Q1002
  • 270830Z 15006KT 9999 FEW010 SCT017 BKN029 18/14 Q1002
  • 270800Z 15006KT 9999 FEW009 SCT014 BKN027 17/15 Q1002
  • 270730Z 16006KT 130V210 9999 FEW007 SCT009 BKN011 17/15 Q1002
  • 270700Z 17006KT 140V200 9999 FEW006 SCT010 BKN023 17/16 Q1002

TAF TAF LRAR
Valide du 27 à 09h jusqu'au 27 à 18h UTC


270800Z 2709/2718 17007KT 9999 SCT010 BKN030
TEMPO 2710/2714 5000 TSRA SCT015 SCT030CB
PROB40
TEMPO 2715/2718 5000 -SHRA BKN015 SCT020CB BKN025



MET'MAP, la Météo Aéronautique d'un coup d'oeil ! - Copyright ORBIFLY Décembre 2007 - Disclaimer

ORBIFLY MET'MAP TEAM :

Programmation & Développement : Alexandra Zaïnal
Sur une idée originale de : Baudouin d'Aumeries
Soutien technique & logistique : Manuel Goepfert
Assistance : Marc-Olivier Méhu




SOURCES & CREDITS :

   NOAA